Turon, Mississippi
Current Conditions -  °F | °C
As of 11:55 AM on Monday 24 Nov 2014 (Local Time) from KM40 Reporting Station
Few Clouds Few Clouds  
Wind Chill: 63°   Ceiling: Unl
Heat Index: 63°   Visibility: 9mi
Dew Point: 46°   Wind: 6mph
Humidity: 55%   Direction: 260°W
Pressure: 29.9"   Gusts: NA
Location:  34.0647°N, 88.3844°W
Report Text: KM40 241755Z AUTO 26005KT 9SM FEW034 17/08 A2990 RMK AO2
Loading
Personal Weather Stations






























Interactive Weather Map New forecast layout! Learn more

10-Day Weather Forecast

Advertisements
Track Severe Weather on mobile